Detalii statie TOPCOM IMPEX [00001CF6]

Toti senzorii

Date Temperatura solului [C]Precipitatii [mm]Voltaj baterie [mV]Leaf Wetness [Min]HC Air temperature [C]HC Relative humidity [%]Punctul de roua [C]
medieminmaxsumaultimatimpmedieminmaxmediemediemin
2017-06-25 06:00:00 0 6894 15.73 15.13 16.64 100 15.6 15.1
2017-06-25 07:00:00 0 6942 18.64 16.83 21.09 96.79 18 16.8
2017-06-25 08:00:00 0 7010 22.88 21.57 25 72.07 17.3 16.5
2017-06-25 09:00:00 0 7148 26.06 25.23 26.7 56.01 16.4 15.4
2017-06-25 10:00:00 0 7264 27.85 26.63 28.87 50.85 16.5 15.7
2017-06-25 11:00:00 0 7264 29.03 28.44 30.08 46.68 16.2 15.8
2017-06-25 12:00:00 0 7264 30.63 29.96 31.31 43.54 16.5 15.1
2017-06-25 13:00:00 0 7264 31.44 30.55 32.1 39.56 15.8 15.1
2017-06-25 14:00:00 0 7264 31.53 30.73 32.34 38.99 15.6 14.5
2017-06-25 15:00:00 0 7264 31.89 31.43 32.26 38.25 15.7 14.4
2017-06-25 16:00:00 0 7254 31.93 31.41 32.39 35.14 14.3 13.5
2017-06-25 17:00:00 0 7254 31.68 31.09 32.11 34.34 13.8 12.8
2017-06-25 18:00:00 0 7128 30.65 30.19 31.04 33.29 12.3 11.1
2017-06-25 19:00:00 0 7246 29.35 28.32 30.2 43.69 15.4 13.8
2017-06-25 20:00:00 0 6904 26.56 24.91 28.07 57.77 17.3 16.5
2017-06-25 21:00:00 0 6884 22.5 21.31 24.58 86.6 19.9 18.4
2017-06-25 22:00:00 0 6874 22.19 21.55 23.3 85.21 19.4 18.6
2017-06-25 23:00:00 0 6864 22.03 20.92 23.31 85.68 19.3 18.8
2017-06-26 00:00:00 0 6874 20.62 20.03 21.29 94.61 19.6 19.1
2017-06-26 01:00:00 0 6864 21.02 20.48 21.63 89.66 19.1 18.9
2017-06-26 02:00:00 0 6864 19.58 18.89 20.7 98.49 19.2 18.8
2017-06-26 03:00:00 0 6854 19.12 18.94 19.28 100 19 18.9
2017-06-26 04:00:00 0 6844 18.38 17.75 18.93 100 18.3 17.7
2017-06-26 05:00:00 0 6854 17.4 16.9 17.96 100 17.3 16.9
2017-06-26 06:00:00 0 6914 18.89 18.07 19.56 100 18.8 18
2017-06-26 07:00:00 0 7020 21.3 19.77 22.43 94.46 20.2 19.7
2017-06-26 08:00:00 0 7158 23.73 22.4 25.52 81.64 20.2 19.9
2017-06-26 09:00:00 0 7254 27.07 25.85 28.37 66.23 19.9 18.7
2017-06-26 10:00:00 0 7264 30 28.57 31.4 52.86 19.1 18.1
2017-06-26 11:00:00 0 7264 31.19 30.15 32.67 51.01 19.6 18.2
2017-06-26 12:00:00 0 7254 32.59 31.62 33.49 42.6 17.9 16.2
2017-06-26 13:00:00 0 7264 33.5 32.89 34.18 36.89 16.5 15.3
2017-06-26 14:00:00 0 7254 33.97 33.47 34.59 36.49 16.6 15.5
2017-06-26 15:00:00 0 7254 33.94 33.24 34.7 41 18.5 17.6
2017-06-26 16:00:00 0 7246 32.9 30.86 33.72 40.27 17.3 16.2
2017-06-26 17:00:00 0 7158 28.84 26.67 30.55 56.1 18.7 16.4
2017-06-26 18:00:00 0 6972 27.8 26.78 28.81 63.55 20 19.2
2017-06-26 19:00:00 0 6904 26.19 25.43 27.08 71.97 20.5 20
2017-06-26 20:00:00 0 6874 23.13 20.79 25.78 74.36 18 16.3
2017-06-26 21:00:00 0 6864 20.6 20.06 20.81 91.91 19 18.2
2017-06-26 22:00:00 0 6864 19.31 19 19.79 100 19.2 19
2017-06-26 23:00:00 0 6854 18.72 18.41 18.98 100 18.6 18.4
2017-06-27 00:00:00 0 6854 18.42 17.92 18.67 100 18.3 17.9
2017-06-27 01:00:00 0 6854 18.05 17.76 18.36 100 18 17.7
2017-06-27 02:00:00 0 6854 17.85 17.52 18.1 100 17.8 17.5
2017-06-27 03:00:00 0 6844 17.47 17.21 17.75 100 17.4 17.2
2017-06-27 04:00:00 0 6854 17.9 17.63 18.14 100 17.8 17.6
2017-06-27 05:00:00 0 6854 17.82 17.69 18 100 17.7 17.6